sensor_id;sensor_type;location;lat;lon;timestamp;P1;durP1;ratioP1;P2;durP2;ratioP2
21550;SDS011;10936;49.836;7.078;2023-03-19T07:02:14;13.80;;;4.47;;
21550;SDS011;10936;49.836;7.078;2023-03-19T07:04:40;8.77;;;5.33;;
21550;SDS011;10936;49.836;7.078;2023-03-19T07:07:06;10.87;;;6.20;;
21550;SDS011;10936;49.836;7.078;2023-03-19T07:09:32;10.53;;;6.23;;
21550;SDS011;10936;49.836;7.078;2023-03-19T07:11:57;14.27;;;7.90;;
21550;SDS011;10936;49.836;7.078;2023-03-19T07:14:23;13.63;;;8.33;;
21550;SDS011;10936;49.836;7.078;2023-03-19T07:16:49;14.60;;;8.23;;
21550;SDS011;10936;49.836;7.078;2023-03-19T07:19:14;8.57;;;5.40;;
21550;SDS011;10936;49.836;7.078;2023-03-19T07:21:40;11.27;;;5.10;;
21550;SDS011;10936;49.836;7.078;2023-03-19T07:24:06;7.23;;;4.30;;
21550;SDS011;10936;49.836;7.078;2023-03-19T07:26:32;11.27;;;4.77;;
21550;SDS011;10936;49.836;7.078;2023-03-19T07:28:57;6.50;;;4.00;;
21550;SDS011;10936;49.836;7.078;2023-03-19T07:31:23;7.53;;;4.23;;
21550;SDS011;10936;49.836;7.078;2023-03-19T07:33:48;5.83;;;3.40;;
21550;SDS011;10936;49.836;7.078;2023-03-19T07:36:14;5.20;;;3.40;;
21550;SDS011;10936;49.836;7.078;2023-03-19T07:38:40;8.00;;;3.57;;
21550;SDS011;10936;49.836;7.078;2023-03-19T07:41:05;7.77;;;3.90;;
21550;SDS011;10936;49.836;7.078;2023-03-19T07:43:31;5.40;;;3.57;;
21550;SDS011;10936;49.836;7.078;2023-03-19T07:45:57;4.90;;;3.77;;
21550;SDS011;10936;49.836;7.078;2023-03-19T07:48:23;7.13;;;3.67;;
21550;SDS011;10936;49.836;7.078;2023-03-19T07:50:49;7.17;;;3.70;;
21550;SDS011;10936;49.836;7.078;2023-03-19T07:53:15;5.90;;;3.90;;
21550;SDS011;10936;49.836;7.078;2023-03-19T07:55:41;8.27;;;4.10;;
21550;SDS011;10936;49.836;7.078;2023-03-19T07:58:06;7.63;;;4.33;;
21550;SDS011;10936;49.836;7.078;2023-03-19T08:00:32;6.83;;;3.63;;
21550;SDS011;10936;49.836;7.078;2023-03-19T08:02:57;6.60;;;3.53;;
21550;SDS011;10936;49.836;7.078;2023-03-19T08:05:23;4.77;;;3.60;;
21550;SDS011;10936;49.836;7.078;2023-03-19T08:07:49;4.57;;;3.30;;
21550;SDS011;10936;49.836;7.078;2023-03-19T08:10:15;6.17;;;3.40;;
21550;SDS011;10936;49.836;7.078;2023-03-19T08:12:41;5.00;;;3.70;;
21550;SDS011;10936;49.836;7.078;2023-03-19T08:15:08;6.27;;;3.90;;
21550;SDS011;10936;49.836;7.078;2023-03-19T08:17:35;4.90;;;3.67;;
21550;SDS011;10936;49.836;7.078;2023-03-19T08:20:05;6.77;;;3.97;;
21550;SDS011;10936;49.836;7.078;2023-03-19T08:22:32;5.70;;;3.27;;
21550;SDS011;10936;49.836;7.078;2023-03-19T08:24:58;7.47;;;3.13;;
21550;SDS011;10936;49.836;7.078;2023-03-19T08:27:24;7.20;;;3.20;;
21550;SDS011;10936;49.836;7.078;2023-03-19T08:29:50;4.87;;;3.10;;
21550;SDS011;10936;49.836;7.078;2023-03-19T08:32:16;5.43;;;3.37;;
21550;SDS011;10936;49.836;7.078;2023-03-19T08:34:42;6.13;;;2.97;;
21550;SDS011;10936;49.836;7.078;2023-03-19T08:37:09;4.60;;;3.07;;
21550;SDS011;10936;49.836;7.078;2023-03-19T08:39:34;6.53;;;3.30;;
21550;SDS011;10936;49.836;7.078;2023-03-19T08:42:00;4.83;;;3.10;;
21550;SDS011;10936;49.836;7.078;2023-03-19T08:44:26;5.33;;;3.17;;
21550;SDS011;10936;49.836;7.078;2023-03-19T08:46:51;5.93;;;3.50;;
21550;SDS011;10936;49.836;7.078;2023-03-19T08:49:17;5.73;;;3.70;;
21550;SDS011;10936;49.836;7.078;2023-03-19T08:51:42;7.27;;;3.17;;
21550;SDS011;10936;49.836;7.078;2023-03-19T08:54:08;4.03;;;2.50;;
21550;SDS011;10936;49.836;7.078;2023-03-19T08:56:35;5.77;;;2.60;;
21550;SDS011;10936;49.836;7.078;2023-03-19T08:59:00;7.40;;;2.70;;
21550;SDS011;10936;49.836;7.078;2023-03-19T09:01:26;5.13;;;2.43;;
21550;SDS011;10936;49.836;7.078;2023-03-19T09:03:52;4.27;;;2.57;;
21550;SDS011;10936;49.836;7.078;2023-03-19T09:06:19;3.03;;;2.00;;
21550;SDS011;10936;49.836;7.078;2023-03-19T09:08:45;4.43;;;2.60;;
21550;SDS011;10936;49.836;7.078;2023-03-19T09:11:10;5.50;;;2.47;;
21550;SDS011;10936;49.836;7.078;2023-03-19T09:13:38;3.47;;;2.43;;
21550;SDS011;10936;49.836;7.078;2023-03-19T09:16:05;5.43;;;2.87;;
21550;SDS011;10936;49.836;7.078;2023-03-19T09:18:31;5.23;;;2.60;;
21550;SDS011;10936;49.836;7.078;2023-03-19T09:20:57;6.03;;;3.30;;
21550;SDS011;10936;49.836;7.078;2023-03-19T09:23:23;6.73;;;3.57;;
21550;SDS011;10936;49.836;7.078;2023-03-19T09:25:49;8.60;;;4.20;;
21550;SDS011;10936;49.836;7.078;2023-03-19T09:28:15;6.17;;;3.23;;
21550;SDS011;10936;49.836;7.078;2023-03-19T09:30:41;6.83;;;3.70;;
21550;SDS011;10936;49.836;7.078;2023-03-19T09:33:07;6.20;;;3.27;;
21550;SDS011;10936;49.836;7.078;2023-03-19T09:35:33;5.07;;;3.20;;
21550;SDS011;10936;49.836;7.078;2023-03-19T09:37:59;6.37;;;3.33;;
21550;SDS011;10936;49.836;7.078;2023-03-19T09:40:29;7.40;;;3.83;;
21550;SDS011;10936;49.836;7.078;2023-03-19T09:45:28;7.27;;;4.13;;
21550;SDS011;10936;49.836;7.078;2023-03-19T09:47:55;6.67;;;4.50;;
21550;SDS011;10936;49.836;7.078;2023-03-19T09:50:25;10.17;;;4.10;;
21550;SDS011;10936;49.836;7.078;2023-03-19T09:55:40;7.47;;;4.47;;
21550;SDS011;10936;49.836;7.078;2023-03-19T09:58:22;8.93;;;5.00;;
21550;SDS011;10936;49.836;7.078;2023-03-19T10:00:54;8.90;;;5.70;;
21550;SDS011;10936;49.836;7.078;2023-03-19T10:06:21;11.00;;;4.80;;
21550;SDS011;10936;49.836;7.078;2023-03-19T10:09:00;7.30;;;4.97;;
21550;SDS011;10936;49.836;7.078;2023-03-19T10:11:32;8.87;;;5.07;;
21550;SDS011;10936;49.836;7.078;2023-03-19T10:17:15;9.17;;;4.40;;
21550;SDS011;10936;49.836;7.078;2023-03-19T10:19:54;9.30;;;4.40;;
21550;SDS011;10936;49.836;7.078;2023-03-19T10:22:31;6.33;;;4.00;;
21550;SDS011;10936;49.836;7.078;2023-03-19T10:25:02;6.97;;;3.80;;
21550;SDS011;10936;49.836;7.078;2023-03-19T10:27:29;11.13;;;4.70;;
21550;SDS011;10936;49.836;7.078;2023-03-19T10:29:55;4.60;;;3.30;;
21550;SDS011;10936;49.836;7.078;2023-03-19T10:32:40;6.77;;;3.60;;
21550;SDS011;10936;49.836;7.078;2023-03-19T10:35:15;4.47;;;3.10;;
21550;SDS011;10936;49.836;7.078;2023-03-19T10:38:05;5.70;;;3.10;;
21550;SDS011;10936;49.836;7.078;2023-03-19T10:43:40;5.53;;;2.90;;
21550;SDS011;10936;49.836;7.078;2023-03-19T10:46:13;5.03;;;2.90;;
21550;SDS011;10936;49.836;7.078;2023-03-19T10:48:43;5.23;;;2.83;;
21550;SDS011;10936;49.836;7.078;2023-03-19T10:51:12;5.13;;;3.03;;
21550;SDS011;10936;49.836;7.078;2023-03-19T10:53:40;7.13;;;3.77;;
21550;SDS011;10936;49.836;7.078;2023-03-19T10:56:06;6.73;;;3.67;;
21550;SDS011;10936;49.836;7.078;2023-03-19T10:59:09;5.57;;;3.90;;
21550;SDS011;10936;49.836;7.078;2023-03-19T11:01:46;5.80;;;4.07;;
21550;SDS011;10936;49.836;7.078;2023-03-19T11:04:13;5.47;;;3.93;;
21550;SDS011;10936;49.836;7.078;2023-03-19T11:06:49;9.33;;;5.33;;
21550;SDS011;10936;49.836;7.078;2023-03-19T11:11:57;7.83;;;5.77;;
21550;SDS011;10936;49.836;7.078;2023-03-19T11:14:33;9.83;;;5.53;;
21550;SDS011;10936;49.836;7.078;2023-03-19T11:19:28;9.43;;;5.80;;
21550;SDS011;10936;49.836;7.078;2023-03-19T11:22:15;10.90;;;5.93;;
21550;SDS011;10936;49.836;7.078;2023-03-19T11:27:35;9.20;;;5.67;;
21550;SDS011;10936;49.836;7.078;2023-03-19T11:30:02;11.30;;;8.07;;
21550;SDS011;10936;49.836;7.078;2023-03-19T11:35:52;15.57;;;9.27;;
21550;SDS011;10936;49.836;7.078;2023-03-19T11:41:32;13.83;;;7.87;;
21550;SDS011;10936;49.836;7.078;2023-03-19T11:47:04;13.73;;;9.77;;
21550;SDS011;10936;49.836;7.078;2023-03-19T11:57:57;10.23;;;7.90;;
21550;SDS011;10936;49.836;7.078;2023-03-19T12:00:42;12.53;;;9.47;;
21550;SDS011;10936;49.836;7.078;2023-03-19T12:03:21;11.40;;;8.87;;
21550;SDS011;10936;49.836;7.078;2023-03-19T12:11:53;13.67;;;9.30;;
21550;SDS011;10936;49.836;7.078;2023-03-19T12:17:22;11.53;;;9.03;;
21550;SDS011;10936;49.836;7.078;2023-03-19T12:23:11;10.20;;;9.00;;
21550;SDS011;10936;49.836;7.078;2023-03-19T12:28:17;11.83;;;9.50;;
21550;SDS011;10936;49.836;7.078;2023-03-19T12:30:57;9.63;;;8.37;;
21550;SDS011;10936;49.836;7.078;2023-03-19T12:36:37;8.27;;;7.20;;
21550;SDS011;10936;49.836;7.078;2023-03-19T12:39:10;6.93;;;5.40;;
21550;SDS011;10936;49.836;7.078;2023-03-19T12:41:40;6.73;;;5.80;;
21550;SDS011;10936;49.836;7.078;2023-03-19T12:44:18;8.07;;;6.40;;
21550;SDS011;10936;49.836;7.078;2023-03-19T12:47:06;11.13;;;6.70;;
21550;SDS011;10936;49.836;7.078;2023-03-19T12:49:40;8.73;;;7.00;;
21550;SDS011;10936;49.836;7.078;2023-03-19T12:54:58;9.47;;;7.33;;
21550;SDS011;10936;49.836;7.078;2023-03-19T13:00:30;8.67;;;6.00;;
21550;SDS011;10936;49.836;7.078;2023-03-19T13:05:46;7.83;;;6.57;;
21550;SDS011;10936;49.836;7.078;2023-03-19T13:08:22;7.53;;;6.40;;
21550;SDS011;10936;49.836;7.078;2023-03-19T13:11:11;6.03;;;5.43;;
21550;SDS011;10936;49.836;7.078;2023-03-19T13:13:41;6.83;;;5.13;;
21550;SDS011;10936;49.836;7.078;2023-03-19T13:22:03;5.10;;;4.70;;
21550;SDS011;10936;49.836;7.078;2023-03-19T13:24:37;5.77;;;5.00;;
21550;SDS011;10936;49.836;7.078;2023-03-19T13:27:09;6.37;;;5.77;;
21550;SDS011;10936;49.836;7.078;2023-03-19T13:29:55;5.87;;;5.27;;
21550;SDS011;10936;49.836;7.078;2023-03-19T13:32:35;5.80;;;5.20;;
21550;SDS011;10936;49.836;7.078;2023-03-19T13:37:43;6.17;;;5.57;;
21550;SDS011;10936;49.836;7.078;2023-03-19T13:43:20;6.00;;;5.40;;
21550;SDS011;10936;49.836;7.078;2023-03-19T13:45:52;4.87;;;4.10;;
21550;SDS011;10936;49.836;7.078;2023-03-19T13:48:23;4.20;;;3.80;;
21550;SDS011;10936;49.836;7.078;2023-03-19T13:51:01;4.63;;;4.23;;
21550;SDS011;10936;49.836;7.078;2023-03-19T13:56:00;4.40;;;4.00;;
21550;SDS011;10936;49.836;7.078;2023-03-19T13:58:29;4.90;;;4.40;;
21550;SDS011;10936;49.836;7.078;2023-03-19T14:03:57;6.00;;;5.30;;
21550;SDS011;10936;49.836;7.078;2023-03-19T14:06:29;5.73;;;5.13;;
21550;SDS011;10936;49.836;7.078;2023-03-19T14:08:58;5.43;;;4.93;;
21550;SDS011;10936;49.836;7.078;2023-03-19T14:11:28;6.20;;;4.77;;
21550;SDS011;10936;49.836;7.078;2023-03-19T14:13:59;5.60;;;4.83;;
21550;SDS011;10936;49.836;7.078;2023-03-19T14:16:45;5.93;;;4.97;;
21550;SDS011;10936;49.836;7.078;2023-03-19T14:19:17;14.93;;;7.67;;
21550;SDS011;10936;49.836;7.078;2023-03-19T14:21:45;4.80;;;4.30;;
21550;SDS011;10936;49.836;7.078;2023-03-19T14:27:14;3.80;;;3.40;;
21550;SDS011;10936;49.836;7.078;2023-03-19T14:29:43;6.33;;;4.23;;
21550;SDS011;10936;49.836;7.078;2023-03-19T14:32:17;4.13;;;3.73;;
21550;SDS011;10936;49.836;7.078;2023-03-19T14:34:46;3.90;;;3.50;;
21550;SDS011;10936;49.836;7.078;2023-03-19T14:40:02;5.23;;;4.30;;
21550;SDS011;10936;49.836;7.078;2023-03-19T14:42:57;4.43;;;3.70;;
21550;SDS011;10936;49.836;7.078;2023-03-19T14:45:54;6.00;;;3.73;;
21550;SDS011;10936;49.836;7.078;2023-03-19T14:51:38;4.43;;;3.90;;
21550;SDS011;10936;49.836;7.078;2023-03-19T14:57:14;4.47;;;3.43;;
21550;SDS011;10936;49.836;7.078;2023-03-19T14:59:51;4.90;;;3.97;;
21550;SDS011;10936;49.836;7.078;2023-03-19T15:02:19;5.13;;;3.70;;
21550;SDS011;10936;49.836;7.078;2023-03-19T15:04:45;4.97;;;4.13;;
21550;SDS011;10936;49.836;7.078;2023-03-19T15:07:24;6.80;;;4.50;;
21550;SDS011;10936;49.836;7.078;2023-03-19T15:09:54;5.57;;;4.80;;
21550;SDS011;10936;49.836;7.078;2023-03-19T15:15:07;5.00;;;4.50;;
21550;SDS011;10936;49.836;7.078;2023-03-19T15:17:36;4.43;;;3.90;;
21550;SDS011;10936;49.836;7.078;2023-03-19T15:20:07;3.70;;;3.40;;
21550;SDS011;10936;49.836;7.078;2023-03-19T15:22:41;3.70;;;3.33;;
21550;SDS011;10936;49.836;7.078;2023-03-19T15:25:07;3.10;;;2.80;;
21550;SDS011;10936;49.836;7.078;2023-03-19T15:27:38;3.90;;;3.10;;
21550;SDS011;10936;49.836;7.078;2023-03-19T15:30:21;2.77;;;2.57;;
21550;SDS011;10936;49.836;7.078;2023-03-19T15:32:50;2.40;;;1.40;;
21550;SDS011;10936;49.836;7.078;2023-03-19T15:35:16;5.60;;;1.83;;
21550;SDS011;10936;49.836;7.078;2023-03-19T15:37:43;3.43;;;2.50;;
21550;SDS011;10936;49.836;7.078;2023-03-19T15:40:14;1.83;;;1.73;;
21550;SDS011;10936;49.836;7.078;2023-03-19T15:42:42;1.93;;;1.70;;
21550;SDS011;10936;49.836;7.078;2023-03-19T15:45:11;1.60;;;1.50;;
21550;SDS011;10936;49.836;7.078;2023-03-19T15:47:45;2.47;;;2.07;;
21550;SDS011;10936;49.836;7.078;2023-03-19T15:50:18;2.80;;;2.10;;
21550;SDS011;10936;49.836;7.078;2023-03-19T15:52:49;3.23;;;2.40;;
21550;SDS011;10936;49.836;7.078;2023-03-19T15:55:20;1.87;;;1.70;;
21550;SDS011;10936;49.836;7.078;2023-03-19T15:57:48;1.83;;;1.63;;
21550;SDS011;10936;49.836;7.078;2023-03-19T16:00:15;1.60;;;1.50;;
21550;SDS011;10936;49.836;7.078;2023-03-19T16:02:43;2.30;;;1.90;;
21550;SDS011;10936;49.836;7.078;2023-03-19T16:07:50;2.03;;;1.70;;
21550;SDS011;10936;49.836;7.078;2023-03-19T16:12:56;2.10;;;1.80;;
21550;SDS011;10936;49.836;7.078;2023-03-19T16:15:38;2.13;;;1.93;;
21550;SDS011;10936;49.836;7.078;2023-03-19T16:20:46;1.87;;;1.63;;
21550;SDS011;10936;49.836;7.078;2023-03-19T16:23:22;2.00;;;1.60;;
21550;SDS011;10936;49.836;7.078;2023-03-19T16:25:55;2.00;;;1.83;;
21550;SDS011;10936;49.836;7.078;2023-03-19T16:28:21;2.30;;;2.10;;
21550;SDS011;10936;49.836;7.078;2023-03-19T16:30:50;3.30;;;2.30;;
21550;SDS011;10936;49.836;7.078;2023-03-19T16:33:15;2.03;;;1.83;;
21550;SDS011;10936;49.836;7.078;2023-03-19T16:35:43;2.90;;;2.60;;
21550;SDS011;10936;49.836;7.078;2023-03-19T16:40:45;3.10;;;2.03;;
21550;SDS011;10936;49.836;7.078;2023-03-19T16:43:20;4.80;;;2.30;;
21550;SDS011;10936;49.836;7.078;2023-03-19T16:46:09;3.27;;;2.40;;
21550;SDS011;10936;49.836;7.078;2023-03-19T16:48:36;3.90;;;2.77;;
21550;SDS011;10936;49.836;7.078;2023-03-19T16:51:03;5.33;;;3.17;;
21550;SDS011;10936;49.836;7.078;2023-03-19T16:53:30;5.33;;;3.17;;
21550;SDS011;10936;49.836;7.078;2023-03-19T16:55:56;4.40;;;3.00;;
21550;SDS011;10936;49.836;7.078;2023-03-19T16:58:36;3.93;;;2.93;;
21550;SDS011;10936;49.836;7.078;2023-03-19T17:01:22;7.87;;;3.23;;
21550;SDS011;10936;49.836;7.078;2023-03-19T17:03:49;6.33;;;3.87;;
21550;SDS011;10936;49.836;7.078;2023-03-19T17:06:15;6.30;;;4.20;;
21550;SDS011;10936;49.836;7.078;2023-03-19T17:08:42;6.87;;;5.33;;
21550;SDS011;10936;49.836;7.078;2023-03-19T17:11:20;10.83;;;6.60;;
21550;SDS011;10936;49.836;7.078;2023-03-19T17:13:51;8.10;;;7.00;;
21550;SDS011;10936;49.836;7.078;2023-03-19T17:16:17;11.27;;;8.13;;
21550;SDS011;10936;49.836;7.078;2023-03-19T17:18:43;8.00;;;6.23;;
21550;SDS011;10936;49.836;7.078;2023-03-19T17:21:12;3.90;;;3.50;;
21550;SDS011;10936;49.836;7.078;2023-03-19T17:23:46;6.07;;;4.77;;
21550;SDS011;10936;49.836;7.078;2023-03-19T17:28:39;6.73;;;6.03;;
21550;SDS011;10936;49.836;7.078;2023-03-19T17:31:09;9.83;;;6.23;;
21550;SDS011;10936;49.836;7.078;2023-03-19T17:33:44;7.03;;;5.30;;
21550;SDS011;10936;49.836;7.078;2023-03-19T17:36:11;6.63;;;5.13;;
21550;SDS011;10936;49.836;7.078;2023-03-19T17:38:37;6.97;;;6.17;;
21550;SDS011;10936;49.836;7.078;2023-03-19T17:41:15;7.60;;;6.50;;
21550;SDS011;10936;49.836;7.078;2023-03-19T17:43:43;9.43;;;6.53;;
21550;SDS011;10936;49.836;7.078;2023-03-19T17:46:11;8.27;;;6.50;;
21550;SDS011;10936;49.836;7.078;2023-03-19T17:48:42;10.07;;;7.23;;
21550;SDS011;10936;49.836;7.078;2023-03-19T17:51:08;7.67;;;5.97;;
21550;SDS011;10936;49.836;7.078;2023-03-19T17:53:34;7.03;;;5.20;;
21550;SDS011;10936;49.836;7.078;2023-03-19T17:56:00;7.30;;;5.23;;
21550;SDS011;10936;49.836;7.078;2023-03-19T17:58:25;5.80;;;5.13;;
21550;SDS011;10936;49.836;7.078;2023-03-19T18:00:51;5.40;;;4.90;;
21550;SDS011;10936;49.836;7.078;2023-03-19T18:03:18;6.33;;;5.00;;
21550;SDS011;10936;49.836;7.078;2023-03-19T18:05:46;5.47;;;4.90;;
21550;SDS011;10936;49.836;7.078;2023-03-19T18:08:15;5.23;;;4.73;;
21550;SDS011;10936;49.836;7.078;2023-03-19T18:10:43;8.73;;;5.43;;
21550;SDS011;10936;49.836;7.078;2023-03-19T18:13:09;7.27;;;6.00;;
21550;SDS011;10936;49.836;7.078;2023-03-19T18:15:36;8.97;;;6.97;;
21550;SDS011;10936;49.836;7.078;2023-03-19T18:18:03;11.93;;;7.30;;
21550;SDS011;10936;49.836;7.078;2023-03-19T18:20:37;8.83;;;7.07;;
21550;SDS011;10936;49.836;7.078;2023-03-19T18:23:04;9.90;;;7.27;;
21550;SDS011;10936;49.836;7.078;2023-03-19T18:25:30;9.67;;;7.83;;
21550;SDS011;10936;49.836;7.078;2023-03-19T18:27:59;11.20;;;7.60;;
21550;SDS011;10936;49.836;7.078;2023-03-19T18:30:27;10.80;;;7.73;;
21550;SDS011;10936;49.836;7.078;2023-03-19T18:32:56;10.30;;;8.00;;
21550;SDS011;10936;49.836;7.078;2023-03-19T18:35:28;10.17;;;7.43;;
21550;SDS011;10936;49.836;7.078;2023-03-19T18:38:16;10.57;;;7.83;;
21550;SDS011;10936;49.836;7.078;2023-03-19T18:40:43;8.57;;;7.30;;
21550;SDS011;10936;49.836;7.078;2023-03-19T18:43:09;9.97;;;7.47;;
21550;SDS011;10936;49.836;7.078;2023-03-19T18:45:35;19.23;;;11.40;;
21550;SDS011;10936;49.836;7.078;2023-03-19T18:48:24;19.47;;;10.40;;
21550;SDS011;10936;49.836;7.078;2023-03-19T18:50:55;15.37;;;8.00;;
21550;SDS011;10936;49.836;7.078;2023-03-19T18:53:21;15.20;;;9.07;;
21550;SDS011;10936;49.836;7.078;2023-03-19T18:55:47;15.97;;;10.70;;
21550;SDS011;10936;49.836;7.078;2023-03-19T18:58:17;12.87;;;8.80;;
21550;SDS011;10936;49.836;7.078;2023-03-19T19:00:47;11.83;;;8.87;;
21550;SDS011;10936;49.836;7.078;2023-03-19T19:03:15;11.83;;;8.73;;
21550;SDS011;10936;49.836;7.078;2023-03-19T19:05:42;12.90;;;9.33;;
21550;SDS011;10936;49.836;7.078;2023-03-19T19:08:12;13.23;;;9.93;;
21550;SDS011;10936;49.836;7.078;2023-03-19T19:10:39;9.70;;;8.13;;
21550;SDS011;10936;49.836;7.078;2023-03-19T19:13:12;14.67;;;10.30;;
21550;SDS011;10936;49.836;7.078;2023-03-19T19:15:48;14.50;;;10.47;;
21550;SDS011;10936;49.836;7.078;2023-03-19T19:18:19;16.07;;;10.90;;
21550;SDS011;10936;49.836;7.078;2023-03-19T19:20:49;19.83;;;11.73;;
21550;SDS011;10936;49.836;7.078;2023-03-19T19:23:16;13.60;;;10.17;;
21550;SDS011;10936;49.836;7.078;2023-03-19T19:25:46;14.70;;;10.60;;
21550;SDS011;10936;49.836;7.078;2023-03-19T19:28:19;15.93;;;10.40;;
21550;SDS011;10936;49.836;7.078;2023-03-19T19:30:50;14.60;;;9.33;;
21550;SDS011;10936;49.836;7.078;2023-03-19T19:33:19;12.47;;;9.20;;
21550;SDS011;10936;49.836;7.078;2023-03-19T19:35:46;13.23;;;9.73;;
21550;SDS011;10936;49.836;7.078;2023-03-19T19:38:12;14.50;;;11.17;;
21550;SDS011;10936;49.836;7.078;2023-03-19T19:40:38;15.73;;;10.67;;
21550;SDS011;10936;49.836;7.078;2023-03-19T19:43:26;14.53;;;10.83;;
21550;SDS011;10936;49.836;7.078;2023-03-19T19:45:54;17.50;;;10.90;;
21550;SDS011;10936;49.836;7.078;2023-03-19T19:48:22;17.70;;;10.87;;
21550;SDS011;10936;49.836;7.078;2023-03-19T19:50:50;20.03;;;12.80;;
21550;SDS011;10936;49.836;7.078;2023-03-19T19:53:16;21.73;;;13.93;;
21550;SDS011;10936;49.836;7.078;2023-03-19T19:55:43;23.53;;;15.67;;
21550;SDS011;10936;49.836;7.078;2023-03-19T19:58:14;29.77;;;18.97;;
21550;SDS011;10936;49.836;7.078;2023-03-19T20:00:42;33.07;;;21.13;;
21550;SDS011;10936;49.836;7.078;2023-03-19T20:03:08;29.87;;;20.73;;
21550;SDS011;10936;49.836;7.078;2023-03-19T20:05:47;24.37;;;15.67;;
21550;SDS011;10936;49.836;7.078;2023-03-19T20:08:14;23.43;;;15.10;;
21550;SDS011;10936;49.836;7.078;2023-03-19T20:10:39;25.43;;;16.13;;
21550;SDS011;10936;49.836;7.078;2023-03-19T20:13:06;31.13;;;20.63;;
21550;SDS011;10936;49.836;7.078;2023-03-19T20:15:53;45.67;;;28.67;;
21550;SDS011;10936;49.836;7.078;2023-03-19T20:18:20;49.30;;;30.97;;
21550;SDS011;10936;49.836;7.078;2023-03-19T20:20:48;43.40;;;26.63;;
21550;SDS011;10936;49.836;7.078;2023-03-19T20:23:14;50.87;;;30.93;;
21550;SDS011;10936;49.836;7.078;2023-03-19T20:25:40;51.73;;;29.63;;
21550;SDS011;10936;49.836;7.078;2023-03-19T20:28:09;49.47;;;29.13;;
21550;SDS011;10936;49.836;7.078;2023-03-19T20:30:46;38.93;;;24.07;;
21550;SDS011;10936;49.836;7.078;2023-03-19T20:33:14;45.97;;;26.70;;
21550;SDS011;10936;49.836;7.078;2023-03-19T20:35:42;40.40;;;23.30;;
21550;SDS011;10936;49.836;7.078;2023-03-19T20:38:09;36.83;;;21.87;;
21550;SDS011;10936;49.836;7.078;2023-03-19T20:40:36;27.40;;;18.10;;
21550;SDS011;10936;49.836;7.078;2023-03-19T20:43:29;26.73;;;17.57;;
21550;SDS011;10936;49.836;7.078;2023-03-19T20:45:59;24.83;;;15.67;;
21550;SDS011;10936;49.836;7.078;2023-03-19T20:48:28;19.50;;;13.70;;
21550;SDS011;10936;49.836;7.078;2023-03-19T20:50:55;19.47;;;13.77;;
21550;SDS011;10936;49.836;7.078;2023-03-19T20:53:23;19.93;;;13.73;;
21550;SDS011;10936;49.836;7.078;2023-03-19T20:55:49;18.73;;;12.23;;
21550;SDS011;10936;49.836;7.078;2023-03-19T20:58:20;13.50;;;9.13;;
21550;SDS011;10936;49.836;7.078;2023-03-19T21:00:55;13.87;;;9.40;;
21550;SDS011;10936;49.836;7.078;2023-03-19T21:03:23;13.33;;;9.03;;
21550;SDS011;10936;49.836;7.078;2023-03-19T21:05:51;12.73;;;7.90;;
21550;SDS011;10936;49.836;7.078;2023-03-19T21:08:25;11.63;;;7.37;;
21550;SDS011;10936;49.836;7.078;2023-03-19T21:10:57;12.87;;;8.47;;
21550;SDS011;10936;49.836;7.078;2023-03-19T21:13:23;14.17;;;7.90;;
21550;SDS011;10936;49.836;7.078;2023-03-19T21:15:50;11.63;;;7.43;;
21550;SDS011;10936;49.836;7.078;2023-03-19T21:18:16;14.40;;;8.97;;
21550;SDS011;10936;49.836;7.078;2023-03-19T21:20:42;17.57;;;11.07;;
21550;SDS011;10936;49.836;7.078;2023-03-19T21:23:18;12.63;;;10.37;;
21550;SDS011;10936;49.836;7.078;2023-03-19T21:25:50;13.97;;;10.57;;
21550;SDS011;10936;49.836;7.078;2023-03-19T21:28:21;19.87;;;12.13;;
21550;SDS011;10936;49.836;7.078;2023-03-19T21:30:47;20.90;;;11.50;;
21550;SDS011;10936;49.836;7.078;2023-03-19T21:33:20;21.63;;;12.60;;
21550;SDS011;10936;49.836;7.078;2023-03-19T21:35:48;16.37;;;12.13;;
21550;SDS011;10936;49.836;7.078;2023-03-19T21:38:14;15.37;;;11.10;;
21550;SDS011;10936;49.836;7.078;2023-03-19T21:40:40;22.10;;;13.13;;
21550;SDS011;10936;49.836;7.078;2023-03-19T21:43:06;22.10;;;14.10;;
21550;SDS011;10936;49.836;7.078;2023-03-19T21:45:38;21.50;;;13.80;;
21550;SDS011;10936;49.836;7.078;2023-03-19T21:50:45;23.50;;;15.37;;
21550;SDS011;10936;49.836;7.078;2023-03-19T21:53:11;20.57;;;14.10;;
21550;SDS011;10936;49.836;7.078;2023-03-19T21:55:37;23.63;;;14.40;;
21550;SDS011;10936;49.836;7.078;2023-03-19T21:58:02;22.23;;;14.83;;
21550;SDS011;10936;49.836;7.078;2023-03-19T22:00:28;22.10;;;14.47;;
21550;SDS011;10936;49.836;7.078;2023-03-19T22:02:55;21.60;;;14.43;;
21550;SDS011;10936;49.836;7.078;2023-03-19T22:07:47;23.13;;;13.93;;
21550;SDS011;10936;49.836;7.078;2023-03-19T22:10:13;24.43;;;15.03;;
21550;SDS011;10936;49.836;7.078;2023-03-19T22:12:39;22.03;;;13.80;;
21550;SDS011;10936;49.836;7.078;2023-03-19T22:15:09;24.60;;;15.47;;
21550;SDS011;10936;49.836;7.078;2023-03-19T22:17:47;24.23;;;15.13;;
21550;SDS011;10936;49.836;7.078;2023-03-19T22:20:18;23.80;;;14.53;;
21550;SDS011;10936;49.836;7.078;2023-03-19T22:22:48;23.53;;;14.63;;
21550;SDS011;10936;49.836;7.078;2023-03-19T22:25:14;20.27;;;14.30;;
21550;SDS011;10936;49.836;7.078;2023-03-19T22:27:41;20.93;;;13.40;;
21550;SDS011;10936;49.836;7.078;2023-03-19T22:30:18;22.10;;;14.77;;
